Fletcher, North Carolina
Current Conditions -  °F | °C
As of 3:54 PM on Tuesday 21 Oct 2014 (Local Time) from KAVL Reporting Station
Clear Clear  
Wind Chill: 64°   Ceiling: Unl
Heat Index: 64°   Visibility: 10mi
Dew Point: 41°   Wind: 18mph
Humidity: 43%   Direction: 350°N
Pressure: 29.94"   Gusts: 26mph
Location:  35.43°N, 82.5°W
Report Text: KAVL 211954Z AUTO 35016G23KT 10SM CLR 18/05 A2994 RMK AO2 PK WND 34030/1926 SLP128 T01780050
Loading
Personal Weather Stations






























Interactive Weather Map
Tropical Storm Tracking
New forecast layout! Learn more

10-Day Weather Forecast

Advertisements
Track Severe Weather on mobile